Decoded Metar for RJFK (KAGOSHIMA in JAPAN) (IATA:KOJ) | Meteo·Mobile Aviation Weather
aviador You're here:

RJFK Decoded Metar

KAGOSHIMA in JAPAN
Report Time2018-08-19 05:00:00
UTC Time2018-08-19 05:27:03
Flight Rules vfr VFR
Wind110° at 11 kt
W.Decomp.*RWY 16: 7.8 kt HW 7.8 kt LCW
W.Rank110° ranks 6
Current wind is above 110° avg. (6.7)
Visibility9999 m
Phenomena:N/A
Clouds:Few 020 Hf
Scattered 040 Hf
Expected CloudBase > 2,400 ft AGL from Temp-Dew spread
CeilingNone
Temp27°C (ISA +14)
Dew Point21°C (70% RH)
Heat Index28.9°C
QNH1010 hPa
Density Alt2,923 ft
Elevation902 ft
Report Wrong Elevation
Raw Report
RJFK 190500Z 11011KT 060V150 9999 FEW020 SCT040 BKN/// 27/21 Q1010
RMK 1CU020 3CU040 A2985 VOLCANIC ASH CLOUD S=

Extra information for RJFK:More info

Metar Taf Metar & Taf Last 4 Metars F.Rules Stats Wind Profile Meteogram Temp Stats Airport Information Weather charts Add Link Nearby VenuesMetar ALERT Operation Metar Decoded Social comments